sensor_id;sensor_type;location;lat;lon;timestamp;pressure;altitude;pressure_sealevel;temperature;humidity
56270;BME280;42176;43.240;27.880;2023-04-26T00:01:40;99158.88;;;11.31;100.00
56270;BME280;42176;43.240;27.880;2023-04-26T00:04:06;99164.78;;;11.38;100.00
56270;BME280;42176;43.240;27.880;2023-04-26T00:06:32;99158.34;;;11.43;100.00
56270;BME280;42176;43.240;27.880;2023-04-26T00:08:59;99159.84;;;11.51;100.00
56270;BME280;42176;43.240;27.880;2023-04-26T00:11:24;99161.28;;;11.58;100.00
56270;BME280;42176;43.240;27.880;2023-04-26T00:13:50;99164.56;;;11.65;100.00
56270;BME280;42176;43.240;27.880;2023-04-26T00:16:16;99159.03;;;11.69;100.00
56270;BME280;42176;43.240;27.880;2023-04-26T00:18:42;99162.38;;;11.75;100.00
56270;BME280;42176;43.240;27.880;2023-04-26T00:21:10;99162.25;;;11.78;100.00
56270;BME280;42176;43.240;27.880;2023-04-26T00:23:36;99163.09;;;11.78;100.00
56270;BME280;42176;43.240;27.880;2023-04-26T00:26:02;99162.25;;;11.78;100.00
56270;BME280;42176;43.240;27.880;2023-04-26T00:28:28;99161.38;;;11.77;100.00
56270;BME280;42176;43.240;27.880;2023-04-26T00:30:53;99159.59;;;11.78;100.00
56270;BME280;42176;43.240;27.880;2023-04-26T00:33:22;99154.34;;;11.76;100.00
56270;BME280;42176;43.240;27.880;2023-04-26T00:35:48;99156.81;;;11.81;100.00
56270;BME280;42176;43.240;27.880;2023-04-26T00:38:13;99163.84;;;11.82;100.00
56270;BME280;42176;43.240;27.880;2023-04-26T00:40:39;99158.53;;;11.82;100.00
56270;BME280;42176;43.240;27.880;2023-04-26T00:43:04;99156.81;;;11.81;100.00
56270;BME280;42176;43.240;27.880;2023-04-26T00:45:30;99162.13;;;11.81;100.00
56270;BME280;42176;43.240;27.880;2023-04-26T00:48:00;99156.06;;;11.77;100.00
56270;BME280;42176;43.240;27.880;2023-04-26T00:50:26;99155.28;;;11.75;100.00
56270;BME280;42176;43.240;27.880;2023-04-26T00:52:51;99159.81;;;11.73;100.00
56270;BME280;42176;43.240;27.880;2023-04-26T00:55:19;99158.13;;;11.70;100.00
56270;BME280;42176;43.240;27.880;2023-04-26T00:57:45;99152.00;;;11.68;100.00
56270;BME280;42176;43.240;27.880;2023-04-26T01:00:11;99136.59;;;11.56;100.00
56270;BME280;42176;43.240;27.880;2023-04-26T01:02:37;99150.47;;;11.63;100.00
56270;BME280;42176;43.240;27.880;2023-04-26T01:05:03;99147.91;;;11.61;100.00
56270;BME280;42176;43.240;27.880;2023-04-26T01:07:30;99144.69;;;11.53;100.00
56270;BME280;42176;43.240;27.880;2023-04-26T01:09:57;99150.94;;;11.52;100.00
56270;BME280;42176;43.240;27.880;2023-04-26T01:12:23;99150.28;;;11.47;100.00
56270;BME280;42176;43.240;27.880;2023-04-26T01:14:50;99150.38;;;11.43;100.00
56270;BME280;42176;43.240;27.880;2023-04-26T01:17:15;99148.75;;;11.41;100.00
56270;BME280;42176;43.240;27.880;2023-04-26T01:19:48;99144.41;;;11.38;100.00
56270;BME280;42176;43.240;27.880;2023-04-26T01:22:13;99130.59;;;11.30;100.00
56270;BME280;42176;43.240;27.880;2023-04-26T01:24:41;99147.00;;;11.40;100.00
56270;BME280;42176;43.240;27.880;2023-04-26T01:27:07;99149.84;;;11.35;100.00
56270;BME280;42176;43.240;27.880;2023-04-26T01:29:33;99149.97;;;11.32;100.00
56270;BME280;42176;43.240;27.880;2023-04-26T01:31:59;99144.66;;;11.32;100.00
56270;BME280;42176;43.240;27.880;2023-04-26T01:34:24;99136.63;;;11.34;100.00
56270;BME280;42176;43.240;27.880;2023-04-26T01:36:50;99139.09;;;11.38;100.00
56270;BME280;42176;43.240;27.880;2023-04-26T01:39:16;99137.19;;;11.42;100.00
56270;BME280;42176;43.240;27.880;2023-04-26T01:41:41;99131.69;;;11.47;100.00
56270;BME280;42176;43.240;27.880;2023-04-26T01:44:07;99118.34;;;11.48;100.00
56270;BME280;42176;43.240;27.880;2023-04-26T01:46:32;99133.31;;;11.51;100.00
56270;BME280;42176;43.240;27.880;2023-04-26T01:48:57;99128.00;;;11.51;100.00
56270;BME280;42176;43.240;27.880;2023-04-26T01:51:23;99128.03;;;11.49;100.00
56270;BME280;42176;43.240;27.880;2023-04-26T01:53:48;99131.69;;;11.47;100.00
56270;BME280;42176;43.240;27.880;2023-04-26T01:56:14;99123.72;;;11.47;100.00
56270;BME280;42176;43.240;27.880;2023-04-26T01:58:40;99128.13;;;11.48;100.00
56270;BME280;42176;43.240;27.880;2023-04-26T02:01:07;99122.81;;;11.48;100.00
56270;BME280;42176;43.240;27.880;2023-04-26T02:03:34;99128.13;;;11.48;100.00
56270;BME280;42176;43.240;27.880;2023-04-26T02:05:59;99128.16;;;11.46;100.00
56270;BME280;42176;43.240;27.880;2023-04-26T02:08:25;99128.25;;;11.45;100.00
56270;BME280;42176;43.240;27.880;2023-04-26T02:10:50;99117.88;;;11.38;100.00
56270;BME280;42176;43.240;27.880;2023-04-26T02:13:16;99118.75;;;11.39;100.00
56270;BME280;42176;43.240;27.880;2023-04-26T02:15:45;99121.41;;;11.39;100.00
56270;BME280;42176;43.240;27.880;2023-04-26T02:18:11;99123.31;;;11.35;100.00
56270;BME280;42176;43.240;27.880;2023-04-26T02:20:40;99126.91;;;11.34;100.00
56270;BME280;42176;43.240;27.880;2023-04-26T02:23:07;99124.38;;;11.31;100.00
56270;BME280;42176;43.240;27.880;2023-04-26T02:25:33;99131.59;;;11.27;100.00
56270;BME280;42176;43.240;27.880;2023-04-26T02:27:58;99128.16;;;11.25;100.00
56270;BME280;42176;43.240;27.880;2023-04-26T02:30:24;99125.69;;;11.21;100.00
56270;BME280;42176;43.240;27.880;2023-04-26T02:32:52;99128.38;;;11.19;100.00
56270;BME280;42176;43.240;27.880;2023-04-26T02:35:18;99127.53;;;11.19;100.00
56270;BME280;42176;43.240;27.880;2023-04-26T02:37:43;99123.16;;;11.18;100.00
56270;BME280;42176;43.240;27.880;2023-04-26T02:40:13;99122.34;;;11.16;100.00
56270;BME280;42176;43.240;27.880;2023-04-26T02:42:38;99119.63;;;11.17;100.00
56270;BME280;42176;43.240;27.880;2023-04-26T02:45:04;99120.53;;;11.16;100.00
56270;BME280;42176;43.240;27.880;2023-04-26T02:47:31;99118.78;;;11.17;100.00
56270;BME280;42176;43.240;27.880;2023-04-26T02:49:57;99110.25;;;11.08;100.00
56270;BME280;42176;43.240;27.880;2023-04-26T02:52:22;99115.69;;;11.05;100.00
56270;BME280;42176;43.240;27.880;2023-04-26T02:54:48;99115.81;;;11.02;100.00
56270;BME280;42176;43.240;27.880;2023-04-26T02:57:13;99126.41;;;11.02;100.00
56270;BME280;42176;43.240;27.880;2023-04-26T02:59:39;99116.84;;;10.98;100.00
56270;BME280;42176;43.240;27.880;2023-04-26T03:02:04;99129.31;;;10.96;100.00
56270;BME280;42176;43.240;27.880;2023-04-26T03:04:32;99115.19;;;10.95;100.00
56270;BME280;42176;43.240;27.880;2023-04-26T03:06:58;99104.53;;;10.97;100.00
56270;BME280;42176;43.240;27.880;2023-04-26T03:09:23;99105.56;;;10.93;100.00
56270;BME280;42176;43.240;27.880;2023-04-26T03:11:49;99110.88;;;10.93;100.00
56270;BME280;42176;43.240;27.880;2023-04-26T03:14:14;99110.75;;;10.96;100.00
56270;BME280;42176;43.240;27.880;2023-04-26T03:16:42;99114.31;;;10.95;100.00
56270;BME280;42176;43.240;27.880;2023-04-26T03:19:08;99110.75;;;10.96;100.00
56270;BME280;42176;43.240;27.880;2023-04-26T03:21:34;99113.28;;;10.99;100.00
56270;BME280;42176;43.240;27.880;2023-04-26T03:24:00;99107.66;;;11.07;100.00
56270;BME280;42176;43.240;27.880;2023-04-26T03:26:25;99111.75;;;11.16;100.00
56270;BME280;42176;43.240;27.880;2023-04-26T03:28:51;99111.47;;;11.22;100.00
56270;BME280;42176;43.240;27.880;2023-04-26T03:31:16;99118.25;;;11.29;100.00
56270;BME280;42176;43.240;27.880;2023-04-26T03:33:42;99112.75;;;11.34;100.00
56270;BME280;42176;43.240;27.880;2023-04-26T03:36:07;99114.28;;;11.39;100.00
56270;BME280;42176;43.240;27.880;2023-04-26T03:38:33;99115.78;;;11.47;100.00
56270;BME280;42176;43.240;27.880;2023-04-26T03:40:58;99112.66;;;11.57;100.00
56270;BME280;42176;43.240;27.880;2023-04-26T03:43:24;99113.16;;;11.67;100.00
56270;BME280;42176;43.240;27.880;2023-04-26T03:45:50;99110.19;;;11.73;100.00
56270;BME280;42176;43.240;27.880;2023-04-26T03:48:15;99116.84;;;11.84;100.00
56270;BME280;42176;43.240;27.880;2023-04-26T03:50:41;99114.97;;;11.86;100.00
56270;BME280;42176;43.240;27.880;2023-04-26T03:53:09;99113.91;;;11.90;100.00
56270;BME280;42176;43.240;27.880;2023-04-26T03:55:35;99108.47;;;11.93;100.00
56270;BME280;42176;43.240;27.880;2023-04-26T03:58:01;99113.53;;;11.99;100.00
56270;BME280;42176;43.240;27.880;2023-04-26T04:02:58;99094.59;;;12.07;100.00
56270;BME280;42176;43.240;27.880;2023-04-26T04:05:23;99116.97;;;12.22;100.00
56270;BME280;42176;43.240;27.880;2023-04-26T04:07:49;99117.47;;;12.30;100.00
56270;BME280;42176;43.240;27.880;2023-04-26T04:10:14;99123.44;;;12.36;100.00
56270;BME280;42176;43.240;27.880;2023-04-26T04:12:40;99127.69;;;12.40;100.00
56270;BME280;42176;43.240;27.880;2023-04-26T04:15:06;99117.19;;;12.37;100.00
56270;BME280;42176;43.240;27.880;2023-04-26T04:17:32;99130.66;;;12.53;100.00
56270;BME280;42176;43.240;27.880;2023-04-26T04:19:57;99132.31;;;12.55;100.00
56270;BME280;42176;43.240;27.880;2023-04-26T04:22:23;99128.59;;;12.59;100.00
56270;BME280;42176;43.240;27.880;2023-04-26T04:24:48;99130.94;;;12.66;100.00
56270;BME280;42176;43.240;27.880;2023-04-26T04:27:14;99139.63;;;12.69;100.00
56270;BME280;42176;43.240;27.880;2023-04-26T04:29:40;99125.97;;;12.77;100.00
56270;BME280;42176;43.240;27.880;2023-04-26T04:32:06;99123.69;;;12.88;100.00
56270;BME280;42176;43.240;27.880;2023-04-26T04:34:34;99125.38;;;13.08;100.00
56270;BME280;42176;43.240;27.880;2023-04-26T04:37:00;99128.78;;;13.30;100.00
56270;BME280;42176;43.240;27.880;2023-04-26T04:39:26;99137.22;;;13.57;100.00
56270;BME280;42176;43.240;27.880;2023-04-26T04:41:51;99139.66;;;13.97;100.00
56270;BME280;42176;43.240;27.880;2023-04-26T04:44:18;99133.53;;;14.12;100.00
56270;BME280;42176;43.240;27.880;2023-04-26T04:46:44;99123.56;;;14.16;100.00
56270;BME280;42176;43.240;27.880;2023-04-26T04:49:10;99135.75;;;14.38;100.00
56270;BME280;42176;43.240;27.880;2023-04-26T04:51:39;99142.03;;;14.53;100.00
56270;BME280;42176;43.240;27.880;2023-04-26T04:54:11;99138.16;;;14.76;100.00
56270;BME280;42176;43.240;27.880;2023-04-26T04:56:37;99123.69;;;14.96;100.00
56270;BME280;42176;43.240;27.880;2023-04-26T04:59:03;99120.75;;;15.17;100.00
56270;BME280;42176;43.240;27.880;2023-04-26T05:01:30;99130.72;;;15.29;100.00
56270;BME280;42176;43.240;27.880;2023-04-26T05:03:57;99132.22;;;15.19;95.84
56270;BME280;42176;43.240;27.880;2023-04-26T05:06:22;99129.88;;;15.13;93.58
56270;BME280;42176;43.240;27.880;2023-04-26T05:08:48;99135.03;;;15.16;94.58
56270;BME280;42176;43.240;27.880;2023-04-26T05:11:14;99130.47;;;15.18;97.31
56270;BME280;42176;43.240;27.880;2023-04-26T05:13:39;99126.53;;;15.25;100.00
56270;BME280;42176;43.240;27.880;2023-04-26T05:16:05;99136.06;;;15.29;100.00
56270;BME280;42176;43.240;27.880;2023-04-26T05:18:30;99136.22;;;15.26;100.00
56270;BME280;42176;43.240;27.880;2023-04-26T05:20:56;99129.78;;;15.30;100.00
56270;BME280;42176;43.240;27.880;2023-04-26T05:23:22;99132.28;;;15.33;100.00
56270;BME280;42176;43.240;27.880;2023-04-26T05:25:47;99126.31;;;15.28;98.85
56270;BME280;42176;43.240;27.880;2023-04-26T05:28:13;99132.44;;;15.30;97.55
56270;BME280;42176;43.240;27.880;2023-04-26T05:30:38;99136.22;;;15.26;97.16
56270;BME280;42176;43.240;27.880;2023-04-26T05:33:05;99136.31;;;15.25;98.67
56270;BME280;42176;43.240;27.880;2023-04-26T05:35:31;99147.28;;;15.20;99.79
56270;BME280;42176;43.240;27.880;2023-04-26T05:37:57;99146.75;;;15.13;100.00
56270;BME280;42176;43.240;27.880;2023-04-26T05:40:22;99149.72;;;15.09;100.00
56270;BME280;42176;43.240;27.880;2023-04-26T05:42:49;99146.53;;;15.02;100.00
56270;BME280;42176;43.240;27.880;2023-04-26T05:45:15;99150.56;;;14.93;100.00
56270;BME280;42176;43.240;27.880;2023-04-26T05:47:41;99158.13;;;14.85;100.00
56270;BME280;42176;43.240;27.880;2023-04-26T05:50:06;99160.00;;;14.83;100.00
56270;BME280;42176;43.240;27.880;2023-04-26T05:52:32;99160.00;;;14.83;100.00
56270;BME280;42176;43.240;27.880;2023-04-26T05:54:58;99157.28;;;14.84;100.00
56270;BME280;42176;43.240;27.880;2023-04-26T05:57:23;99161.56;;;14.87;100.00
56270;BME280;42176;43.240;27.880;2023-04-26T05:59:49;99177.56;;;14.87;100.00
56270;BME280;42176;43.240;27.880;2023-04-26T06:02:14;99170.50;;;14.86;100.00
56270;BME280;42176;43.240;27.880;2023-04-26T06:04:40;99166.91;;;14.87;100.00
56270;BME280;42176;43.240;27.880;2023-04-26T06:07:06;99180.41;;;14.84;100.00
56270;BME280;42176;43.240;27.880;2023-04-26T06:09:32;99182.91;;;14.87;100.00
56270;BME280;42176;43.240;27.880;2023-04-26T06:11:58;99177.75;;;14.84;100.00
56270;BME280;42176;43.240;27.880;2023-04-26T06:14:23;99179.97;;;14.75;100.00
56270;BME280;42176;43.240;27.880;2023-04-26T06:16:48;99180.31;;;14.69;100.00
56270;BME280;42176;43.240;27.880;2023-04-26T06:19:14;99181.25;;;14.68;100.00
56270;BME280;42176;43.240;27.880;2023-04-26T06:21:39;99183.91;;;14.68;100.00
56270;BME280;42176;43.240;27.880;2023-04-26T06:24:05;99184.78;;;14.69;100.00
56270;BME280;42176;43.240;27.880;2023-04-26T06:26:31;99187.31;;;14.54;100.00
56270;BME280;42176;43.240;27.880;2023-04-26T06:28:56;99188.00;;;14.58;100.00
56270;BME280;42176;43.240;27.880;2023-04-26T06:31:22;99191.44;;;14.60;100.00
56270;BME280;42176;43.240;27.880;2023-04-26T06:33:47;99180.31;;;14.52;100.00
56270;BME280;42176;43.240;27.880;2023-04-26T06:36:13;99183.59;;;14.57;100.00
56270;BME280;42176;43.240;27.880;2023-04-26T06:38:39;99175.75;;;14.54;100.00
56270;BME280;42176;43.240;27.880;2023-04-26T06:41:04;99193.84;;;14.65;100.00
56270;BME280;42176;43.240;27.880;2023-04-26T06:43:30;99196.31;;;14.69;100.00
56270;BME280;42176;43.240;27.880;2023-04-26T06:45:55;99196.06;;;14.74;100.00
56270;BME280;42176;43.240;27.880;2023-04-26T06:48:21;99197.88;;;14.73;100.00
56270;BME280;42176;43.240;27.880;2023-04-26T06:50:46;99199.44;;;14.77;100.00
56270;BME280;42176;43.240;27.880;2023-04-26T06:53:12;99198.56;;;14.77;100.00
56270;BME280;42176;43.240;27.880;2023-04-26T06:55:38;99206.50;;;14.79;100.00
56270;BME280;42176;43.240;27.880;2023-04-26T06:58:03;99198.56;;;14.77;100.00
56270;BME280;42176;43.240;27.880;2023-04-26T07:00:28;99200.13;;;14.81;100.00
56270;BME280;42176;43.240;27.880;2023-04-26T07:02:54;99191.00;;;14.85;100.00
56270;BME280;42176;43.240;27.880;2023-04-26T07:05:20;99193.25;;;14.93;100.00
56270;BME280;42176;43.240;27.880;2023-04-26T07:07:45;99196.97;;;15.06;100.00
56270;BME280;42176;43.240;27.880;2023-04-26T07:10:11;99196.44;;;15.16;100.00
56270;BME280;42176;43.240;27.880;2023-04-26T07:12:37;99201.00;;;15.30;100.00
56270;BME280;42176;43.240;27.880;2023-04-26T07:15:03;99185.50;;;15.36;100.00
56270;BME280;42176;43.240;27.880;2023-04-26T07:17:31;99194.34;;;15.53;100.00
56270;BME280;42176;43.240;27.880;2023-04-26T07:19:57;99201.47;;;15.68;100.00
56270;BME280;42176;43.240;27.880;2023-04-26T07:22:22;99195.41;;;15.81;100.00
56270;BME280;42176;43.240;27.880;2023-04-26T07:24:48;99205.13;;;15.98;98.83
56270;BME280;42176;43.240;27.880;2023-04-26T07:27:14;99198.97;;;16.12;97.29
56270;BME280;42176;43.240;27.880;2023-04-26T07:29:39;99198.78;;;16.15;96.18
56270;BME280;42176;43.240;27.880;2023-04-26T07:32:04;99197.56;;;16.21;96.88
56270;BME280;42176;43.240;27.880;2023-04-26T07:34:31;99200.13;;;16.22;96.18
56270;BME280;42176;43.240;27.880;2023-04-26T07:36:56;99200.91;;;16.24;95.03
56270;BME280;42176;43.240;27.880;2023-04-26T07:39:22;99193.44;;;16.15;93.73
56270;BME280;42176;43.240;27.880;2023-04-26T07:41:47;99198.81;;;16.29;92.39
56270;BME280;42176;43.240;27.880;2023-04-26T07:44:13;99196.91;;;16.32;90.95
56270;BME280;42176;43.240;27.880;2023-04-26T07:46:38;99185.94;;;16.51;90.40
56270;BME280;42176;43.240;27.880;2023-04-26T07:49:04;99192.16;;;16.66;91.41
56270;BME280;42176;43.240;27.880;2023-04-26T07:51:29;99199.78;;;16.86;89.28
56270;BME280;42176;43.240;27.880;2023-04-26T07:53:55;99192.69;;;17.14;86.45
56270;BME280;42176;43.240;27.880;2023-04-26T07:56:23;99190.63;;;17.60;83.46
56270;BME280;42176;43.240;27.880;2023-04-26T07:58:48;99197.06;;;17.85;80.27
56270;BME280;42176;43.240;27.880;2023-04-26T08:01:14;99202.53;;;18.36;77.92
56270;BME280;42176;43.240;27.880;2023-04-26T08:03:40;99207.69;;;18.65;75.95
56270;BME280;42176;43.240;27.880;2023-04-26T08:06:05;99194.91;;;18.82;73.03
56270;BME280;42176;43.240;27.880;2023-04-26T08:08:33;99207.03;;;18.87;73.08
56270;BME280;42176;43.240;27.880;2023-04-26T08:10:59;99198.00;;;19.01;72.15
56270;BME280;42176;43.240;27.880;2023-04-26T08:13:25;99187.84;;;19.18;71.10
56270;BME280;42176;43.240;27.880;2023-04-26T08:15:50;99191.44;;;19.43;69.26
56270;BME280;42176;43.240;27.880;2023-04-26T08:18:16;99188.53;;;19.46;66.55
56270;BME280;42176;43.240;27.880;2023-04-26T08:20:41;99189.53;;;19.81;66.07
56270;BME280;42176;43.240;27.880;2023-04-26T08:23:07;99152.56;;;19.71;65.72
56270;BME280;42176;43.240;27.880;2023-04-26T08:25:33;99182.00;;;20.21;62.60
56270;BME280;42176;43.240;27.880;2023-04-26T08:27:59;99187.09;;;20.24;61.81
56270;BME280;42176;43.240;27.880;2023-04-26T08:30:24;99187.81;;;20.04;62.62
56270;BME280;42176;43.240;27.880;2023-04-26T08:32:50;99184.22;;;19.68;64.61
56270;BME280;42176;43.240;27.880;2023-04-26T08:35:15;99179.19;;;19.39;64.28
56270;BME280;42176;43.240;27.880;2023-04-26T08:37:41;99179.28;;;19.13;64.94
56270;BME280;42176;43.240;27.880;2023-04-26T08:40:07;99185.78;;;18.46;67.21
56270;BME280;42176;43.240;27.880;2023-04-26T08:42:41;99188.69;;;18.42;68.67
56270;BME280;42176;43.240;27.880;2023-04-26T08:45:08;99184.72;;;18.35;69.13
56270;BME280;42176;43.240;27.880;2023-04-26T08:47:49;99190.09;;;18.35;70.61
56270;BME280;42176;43.240;27.880;2023-04-26T08:50:18;99188.88;;;18.14;71.46
56270;BME280;42176;43.240;27.880;2023-04-26T08:52:44;99154.66;;;18.04;70.56
56270;BME280;42176;43.240;27.880;2023-04-26T08:55:12;99192.63;;;18.24;72.25
56270;BME280;42176;43.240;27.880;2023-04-26T08:57:39;99197.78;;;18.01;73.57
56270;BME280;42176;43.240;27.880;2023-04-26T09:00:06;99190.69;;;18.00;72.69
56270;BME280;42176;43.240;27.880;2023-04-26T09:02:39;99187.34;;;17.96;74.52
56270;BME280;42176;43.240;27.880;2023-04-26T09:05:06;99186.56;;;17.54;74.86
56270;BME280;42176;43.240;27.880;2023-04-26T09:07:39;99190.44;;;17.63;76.83
56270;BME280;42176;43.240;27.880;2023-04-26T09:10:05;99183.03;;;17.54;75.65
56270;BME280;42176;43.240;27.880;2023-04-26T09:12:31;99172.91;;;17.44;76.25
56270;BME280;42176;43.240;27.880;2023-04-26T09:14:56;99190.47;;;17.35;78.64
56270;BME280;42176;43.240;27.880;2023-04-26T09:19:55;99194.22;;;17.18;76.67
56270;BME280;42176;43.240;27.880;2023-04-26T09:22:47;99192.88;;;17.26;78.27
56270;BME280;42176;43.240;27.880;2023-04-26T09:25:15;99199.16;;;17.39;77.62
56270;BME280;42176;43.240;27.880;2023-04-26T09:27:42;99183.28;;;17.36;79.80
56270;BME280;42176;43.240;27.880;2023-04-26T09:30:14;99199.56;;;17.18;80.13
56270;BME280;42176;43.240;27.880;2023-04-26T09:32:46;99203.22;;;16.88;80.19
56270;BME280;42176;43.240;27.880;2023-04-26T09:37:58;99189.84;;;16.31;84.55
56270;BME280;42176;43.240;27.880;2023-04-26T09:40:26;99192.22;;;16.21;85.91
56270;BME280;42176;43.240;27.880;2023-04-26T09:43:07;99184.56;;;16.43;88.16
56270;BME280;42176;43.240;27.880;2023-04-26T09:45:43;99195.53;;;16.10;88.68
56270;BME280;42176;43.240;27.880;2023-04-26T09:50:41;99199.75;;;16.28;89.00
56270;BME280;42176;43.240;27.880;2023-04-26T09:53:08;99196.44;;;16.39;88.81
56270;BME280;42176;43.240;27.880;2023-04-26T09:55:34;99186.03;;;16.49;87.84
56270;BME280;42176;43.240;27.880;2023-04-26T09:58:07;99187.91;;;16.18;85.46
56270;BME280;42176;43.240;27.880;2023-04-26T10:00:33;99185.94;;;16.36;84.47
56270;BME280;42176;43.240;27.880;2023-04-26T10:03:02;99191.19;;;16.52;85.17
56270;BME280;42176;43.240;27.880;2023-04-26T10:05:31;99187.16;;;16.31;85.81
56270;BME280;42176;43.240;27.880;2023-04-26T10:07:57;99182.88;;;16.42;87.02
56270;BME280;42176;43.240;27.880;2023-04-26T10:10:22;99178.69;;;16.38;86.85
56270;BME280;42176;43.240;27.880;2023-04-26T10:12:48;99180.47;;;16.23;83.84
56270;BME280;42176;43.240;27.880;2023-04-26T10:15:14;99188.28;;;16.12;84.87
56270;BME280;42176;43.240;27.880;2023-04-26T10:17:39;99183.31;;;16.20;84.36
56270;BME280;42176;43.240;27.880;2023-04-26T10:20:08;99188.72;;;16.35;85.80
56270;BME280;42176;43.240;27.880;2023-04-26T10:22:39;99180.63;;;16.20;90.35
56270;BME280;42176;43.240;27.880;2023-04-26T10:25:08;99165.78;;;16.31;92.06
56270;BME280;42176;43.240;27.880;2023-04-26T10:35:17;99176.66;;;15.66;95.84
56270;BME280;42176;43.240;27.880;2023-04-26T10:40:35;99178.84;;;15.90;97.75
56270;BME280;42176;43.240;27.880;2023-04-26T10:45:34;99180.69;;;16.49;94.24
56270;BME280;42176;43.240;27.880;2023-04-26T10:56:49;99151.47;;;17.44;84.87
56270;BME280;42176;43.240;27.880;2023-04-26T10:59:18;99174.47;;;17.34;84.15
56270;BME280;42176;43.240;27.880;2023-04-26T11:01:44;99175.03;;;17.39;83.18
56270;BME280;42176;43.240;27.880;2023-04-26T11:04:11;99169.34;;;17.16;85.93
56270;BME280;42176;43.240;27.880;2023-04-26T11:06:53;99176.25;;;17.20;89.46
56270;BME280;42176;43.240;27.880;2023-04-26T11:09:39;99178.47;;;17.14;85.97
56270;BME280;42176;43.240;27.880;2023-04-26T11:12:06;99173.03;;;16.57;89.20
56270;BME280;42176;43.240;27.880;2023-04-26T11:14:35;99172.22;;;17.13;86.24
56270;BME280;42176;43.240;27.880;2023-04-26T11:17:05;99168.91;;;17.10;86.89
56270;BME280;42176;43.240;27.880;2023-04-26T11:19:31;99178.31;;;17.30;85.82
56270;BME280;42176;43.240;27.880;2023-04-26T11:21:58;99176.81;;;17.26;85.06
56270;BME280;42176;43.240;27.880;2023-04-26T11:24:30;99139.91;;;17.16;86.14
56270;BME280;42176;43.240;27.880;2023-04-26T11:26:56;99180.31;;;17.81;82.03
56270;BME280;42176;43.240;27.880;2023-04-26T11:29:23;99175.44;;;18.01;78.13
56270;BME280;42176;43.240;27.880;2023-04-26T11:31:55;99174.72;;;18.37;77.63
56270;BME280;42176;43.240;27.880;2023-04-26T11:36:56;99178.78;;;18.69;74.01
56270;BME280;42176;43.240;27.880;2023-04-26T11:39:22;99166.88;;;18.60;73.40
56270;BME280;42176;43.240;27.880;2023-04-26T11:41:47;99178.28;;;18.51;77.86
56270;BME280;42176;43.240;27.880;2023-04-26T11:44:17;99171.81;;;18.40;73.96
56270;BME280;42176;43.240;27.880;2023-04-26T11:46:45;99176.69;;;18.35;72.59
56270;BME280;42176;43.240;27.880;2023-04-26T11:49:10;99174.41;;;18.29;71.93
56270;BME280;42176;43.240;27.880;2023-04-26T11:51:36;99173.31;;;18.32;70.01
56270;BME280;42176;43.240;27.880;2023-04-26T11:54:02;99169.25;;;18.26;68.32
56270;BME280;42176;43.240;27.880;2023-04-26T11:56:28;99163.03;;;18.38;65.84
56270;BME280;42176;43.240;27.880;2023-04-26T11:58:53;99162.59;;;18.45;65.70
56270;BME280;42176;43.240;27.880;2023-04-26T12:01:23;99158.41;;;18.40;64.37
56270;BME280;42176;43.240;27.880;2023-04-26T12:03:53;99162.41;;;18.48;60.48
56270;BME280;42176;43.240;27.880;2023-04-26T12:06:20;99163.66;;;18.55;61.30
56270;BME280;42176;43.240;27.880;2023-04-26T12:08:51;99154.66;;;18.30;62.71
56270;BME280;42176;43.240;27.880;2023-04-26T12:11:17;99157.78;;;18.24;72.05
56270;BME280;42176;43.240;27.880;2023-04-26T12:13:44;99159.31;;;17.88;74.93
56270;BME280;42176;43.240;27.880;2023-04-26T12:16:12;99160.59;;;17.95;75.73
56270;BME280;42176;43.240;27.880;2023-04-26T12:18:38;99158.88;;;17.94;76.09
56270;BME280;42176;43.240;27.880;2023-04-26T12:21:03;99167.44;;;17.18;81.00
56270;BME280;42176;43.240;27.880;2023-04-26T12:23:39;99166.38;;;16.50;83.79
56270;BME280;42176;43.240;27.880;2023-04-26T12:26:05;99150.63;;;15.70;90.55
56270;BME280;42176;43.240;27.880;2023-04-26T12:28:31;99166.28;;;15.46;93.44
56270;BME280;42176;43.240;27.880;2023-04-26T12:30:57;99164.84;;;15.08;96.43
56270;BME280;42176;43.240;27.880;2023-04-26T12:33:22;99171.38;;;14.86;100.00
56270;BME280;42176;43.240;27.880;2023-04-26T12:35:49;99167.94;;;14.84;100.00
56270;BME280;42176;43.240;27.880;2023-04-26T12:38:15;99172.81;;;14.42;100.00
56270;BME280;42176;43.240;27.880;2023-04-26T12:40:41;99164.88;;;13.90;100.00
56270;BME280;42176;43.240;27.880;2023-04-26T12:43:07;99171.31;;;13.68;100.00
56270;BME280;42176;43.240;27.880;2023-04-26T12:45:33;99174.66;;;13.54;100.00
56270;BME280;42176;43.240;27.880;2023-04-26T12:47:58;99188.50;;;13.43;100.00
56270;BME280;42176;43.240;27.880;2023-04-26T12:50:24;99177.72;;;13.27;100.00
56270;BME280;42176;43.240;27.880;2023-04-26T12:52:50;99160.78;;;13.47;100.00
56270;BME280;42176;43.240;27.880;2023-04-26T12:55:15;99164.63;;;13.94;100.00
56270;BME280;42176;43.240;27.880;2023-04-26T12:57:43;99169.81;;;13.80;100.00
56270;BME280;42176;43.240;27.880;2023-04-26T13:00:11;99158.47;;;13.76;100.00
56270;BME280;42176;43.240;27.880;2023-04-26T13:02:37;99152.09;;;13.79;100.00
56270;BME280;42176;43.240;27.880;2023-04-26T13:05:02;99152.03;;;13.63;100.00
56270;BME280;42176;43.240;27.880;2023-04-26T13:07:36;99144.50;;;13.89;100.00
56270;BME280;42176;43.240;27.880;2023-04-26T13:10:04;99146.38;;;14.04;100.00
56270;BME280;42176;43.240;27.880;2023-04-26T13:12:29;99146.06;;;14.10;100.00
56270;BME280;42176;43.240;27.880;2023-04-26T13:14:55;99150.22;;;13.81;100.00